createdAt,value
2018-07-03T00:02:22.892Z,91.20
2018-07-03T00:04:51.719Z,91.20
2018-07-03T00:07:20.735Z,91.30
2018-07-03T00:09:49.571Z,91.10
2018-07-03T00:12:18.403Z,91.10
2018-07-03T00:14:47.227Z,90.80
2018-07-03T00:17:17.223Z,91.10
2018-07-03T00:19:50.311Z,90.90
2018-07-03T00:22:20.252Z,91.40
2018-07-03T00:24:49.071Z,91.00
2018-07-03T00:29:47.236Z,91.00
2018-07-03T00:32:16.063Z,91.00
2018-07-03T00:34:44.907Z,91.10
2018-07-03T00:37:13.732Z,91.10
2018-07-03T00:39:42.572Z,91.20
2018-07-03T00:42:11.408Z,91.00
2018-07-03T00:44:40.249Z,91.30
2018-07-03T00:47:09.039Z,91.10
2018-07-03T00:49:37.891Z,91.10
2018-07-03T00:52:06.778Z,90.80
2018-07-03T00:54:35.674Z,90.80
2018-07-03T00:57:04.603Z,90.40
2018-07-03T00:59:33.582Z,90.30
2018-07-03T01:02:02.432Z,90.30
2018-07-03T01:06:59.983Z,90.90
2018-07-03T01:09:28.819Z,91.00
2018-07-03T01:14:26.381Z,91.10
2018-07-03T01:16:55.243Z,90.80
2018-07-03T01:19:23.472Z,90.80
2018-07-03T01:21:52.323Z,90.80
2018-07-03T01:26:49.904Z,91.00
2018-07-03T01:29:18.133Z,91.40
2018-07-03T01:31:46.939Z,91.10
2018-07-03T01:34:15.803Z,91.00
2018-07-03T01:36:44.611Z,90.90
2018-07-03T01:39:13.427Z,90.80
2018-07-03T01:44:11.015Z,90.70
2018-07-03T01:51:37.335Z,91.30
2018-07-03T01:54:06.286Z,91.40
2018-07-03T01:56:35.148Z,91.30
2018-07-03T01:59:04.023Z,91.40
2018-07-03T02:01:32.837Z,91.50
2018-07-03T02:04:01.715Z,91.50
2018-07-03T02:06:30.522Z,91.60
2018-07-03T02:08:59.334Z,91.60
2018-07-03T02:11:28.496Z,91.60
2018-07-03T02:13:57.319Z,91.60
2018-07-03T02:16:26.174Z,91.70
2018-07-03T02:21:23.723Z,91.70
2018-07-03T02:23:52.530Z,91.90
2018-07-03T02:26:21.353Z,91.60
2018-07-03T02:28:50.147Z,91.50
2018-07-03T02:31:18.984Z,91.40
2018-07-03T02:33:47.849Z,91.80
2018-07-03T02:36:16.747Z,91.90
2018-07-03T02:38:45.576Z,92.20
2018-07-03T02:43:43.170Z,92.20
2018-07-03T02:46:12.020Z,92.10
2018-07-03T02:48:40.833Z,92.10
2018-07-03T02:53:38.427Z,92.10
2018-07-03T02:56:07.324Z,91.90
2018-07-03T02:58:36.167Z,91.80
2018-07-03T03:01:05.045Z,92.10
2018-07-03T03:03:34.148Z,92.10
2018-07-03T03:06:03.028Z,92.00
2018-07-03T03:08:31.873Z,91.80
2018-07-03T03:11:00.715Z,91.80
2018-07-03T03:13:29.573Z,91.50
2018-07-03T03:15:58.427Z,91.30
2018-07-03T03:20:55.972Z,91.20
2018-07-03T03:23:24.956Z,91.10
2018-07-03T03:25:53.952Z,91.30
2018-07-03T03:28:22.834Z,91.50
2018-07-03T03:30:51.736Z,91.40
2018-07-03T03:33:20.590Z,91.40
2018-07-03T03:35:49.399Z,91.70
2018-07-03T03:38:18.220Z,91.60
2018-07-03T03:40:47.064Z,91.50
2018-07-03T03:43:15.882Z,91.40
2018-07-03T03:45:44.700Z,91.20
2018-07-03T03:48:13.559Z,91.70
2018-07-03T03:50:42.363Z,91.60
2018-07-03T03:53:11.260Z,91.50
2018-07-03T03:55:40.118Z,91.40
2018-07-03T03:58:09.008Z,91.70
2018-07-03T04:00:37.856Z,91.50
2018-07-03T04:03:06.727Z,91.10
2018-07-03T04:05:35.553Z,91.20
2018-07-03T04:08:04.480Z,91.70
2018-07-03T04:10:33.410Z,91.70
2018-07-03T04:13:02.327Z,91.70
2018-07-03T04:15:31.467Z,92.00
2018-07-03T04:20:29.074Z,92.00
2018-07-03T04:22:57.935Z,92.40
2018-07-03T04:25:26.807Z,91.80
2018-07-03T04:27:55.631Z,91.70
2018-07-03T04:30:24.443Z,91.30
2018-07-03T04:32:53.334Z,91.70
2018-07-03T04:35:22.206Z,92.00
2018-07-03T04:40:19.792Z,91.70
2018-07-03T04:42:48.638Z,91.60
2018-07-03T04:45:17.879Z,91.80
2018-07-03T04:47:46.922Z,91.80
2018-07-03T04:50:15.971Z,91.70
2018-07-03T04:52:45.115Z,91.80
2018-07-03T04:55:13.951Z,91.90
2018-07-03T04:57:42.971Z,91.90
2018-07-03T05:00:11.818Z,91.80
2018-07-03T05:02:40.715Z,91.40
2018-07-03T05:05:09.972Z,91.40
2018-07-03T05:07:38.843Z,91.10
2018-07-03T05:10:07.820Z,91.20
2018-07-03T05:12:36.636Z,91.30
2018-07-03T05:15:05.533Z,91.40
2018-07-03T05:17:34.470Z,91.60
2018-07-03T05:20:03.394Z,91.30
2018-07-03T05:22:33.034Z,92.00
2018-07-03T05:27:32.236Z,91.50
2018-07-03T05:30:01.348Z,91.40
2018-07-03T05:32:30.402Z,91.60
2018-07-03T05:35:00.062Z,91.60
2018-07-03T05:37:29.551Z,91.30
2018-07-03T05:39:59.223Z,92.30
2018-07-03T05:42:28.268Z,91.60
2018-07-03T05:44:57.112Z,91.50
2018-07-03T05:47:25.961Z,91.10
2018-07-03T05:49:54.770Z,91.30
2018-07-03T05:52:23.663Z,91.40
2018-07-03T05:54:52.542Z,91.60
2018-07-03T06:02:18.942Z,91.00
2018-07-03T06:04:47.772Z,91.30
2018-07-03T06:07:16.651Z,91.30
2018-07-03T06:09:45.507Z,90.30
2018-07-03T06:12:14.367Z,90.30
2018-07-03T06:14:43.200Z,89.90
2018-07-03T06:17:12.289Z,90.40
2018-07-03T06:19:41.131Z,90.40
2018-07-03T06:22:09.979Z,90.70
2018-07-03T06:24:38.824Z,90.80
2018-07-03T06:27:07.715Z,91.50
2018-07-03T06:32:06.485Z,90.30
2018-07-03T06:34:35.685Z,89.40
2018-07-03T06:37:04.639Z,90.10
2018-07-03T06:39:33.463Z,89.40
2018-07-03T06:42:02.932Z,89.60
2018-07-03T06:44:31.979Z,88.80
2018-07-03T06:49:29.750Z,90.00
2018-07-03T06:51:58.607Z,90.10
2018-07-03T06:54:27.450Z,90.60
2018-07-03T06:59:25.027Z,90.10
2018-07-03T07:01:53.868Z,90.00
2018-07-03T07:04:22.706Z,90.20
2018-07-03T07:06:51.548Z,90.00
2018-07-03T07:09:20.503Z,90.20
2018-07-03T07:11:49.312Z,87.90
2018-07-03T07:14:18.201Z,87.90
2018-07-03T07:16:47.116Z,87.00
2018-07-03T07:19:15.955Z,87.10
2018-07-03T07:24:13.891Z,88.60
2018-07-03T07:26:42.987Z,84.50
2018-07-03T07:29:11.886Z,84.50
2018-07-03T07:31:47.448Z,84.50
2018-07-03T07:34:16.315Z,85.10
2018-07-03T07:36:45.467Z,85.50
2018-07-03T07:39:14.566Z,85.80
2018-07-03T07:41:43.608Z,84.90
2018-07-03T07:44:12.519Z,83.00
2018-07-03T07:46:41.386Z,83.70
2018-07-03T07:49:11.372Z,83.30
2018-07-03T07:51:40.684Z,85.40
2018-07-03T07:54:09.795Z,85.60
2018-07-03T07:56:39.534Z,84.20
2018-07-03T07:59:08.783Z,85.30
2018-07-03T08:01:37.908Z,86.60
2018-07-03T08:04:06.811Z,82.70
2018-07-03T08:06:35.839Z,82.20
2018-07-03T08:11:36.451Z,81.30
2018-07-03T08:14:05.936Z,81.60
2018-07-03T08:16:34.840Z,82.10
2018-07-03T08:19:03.845Z,85.20
2018-07-03T08:21:32.704Z,82.30
2018-07-03T08:24:01.620Z,80.20
2018-07-03T08:26:30.467Z,82.00
2018-07-03T08:28:59.409Z,80.40
2018-07-03T08:31:28.271Z,82.40
2018-07-03T08:33:57.127Z,80.50
2018-07-03T08:36:26.075Z,81.40
2018-07-03T08:38:55.239Z,80.60
2018-07-03T08:41:24.111Z,79.30
2018-07-03T08:43:53.531Z,80.40
2018-07-03T08:46:22.447Z,80.50
2018-07-03T08:48:52.060Z,81.80
2018-07-03T08:51:20.950Z,82.90
2018-07-03T08:53:50.660Z,83.40
2018-07-03T08:56:19.739Z,82.20
2018-07-03T08:58:48.732Z,80.70
2018-07-03T09:01:17.584Z,81.10
2018-07-03T09:03:46.485Z,82.10
2018-07-03T09:06:15.393Z,80.60
2018-07-03T09:08:44.246Z,80.60
2018-07-03T09:11:13.111Z,80.30
2018-07-03T09:13:42.702Z,81.90
2018-07-03T09:16:11.626Z,82.60
2018-07-03T09:18:40.476Z,80.80
2018-07-03T09:21:09.383Z,81.80
2018-07-03T09:23:38.339Z,80.20
2018-07-03T09:28:36.363Z,80.70
2018-07-03T09:31:05.310Z,81.50
2018-07-03T09:33:34.217Z,81.10
2018-07-03T09:36:03.567Z,82.10
2018-07-03T09:38:32.472Z,81.70
2018-07-03T09:41:01.325Z,81.40
2018-07-03T09:43:30.211Z,80.80
2018-07-03T09:45:59.073Z,80.90
2018-07-03T09:48:27.964Z,83.60
2018-07-03T09:50:56.815Z,83.40
2018-07-03T09:55:54.460Z,81.40
2018-07-03T09:58:23.326Z,81.20
2018-07-03T10:00:54.163Z,80.60
2018-07-03T10:03:24.359Z,80.70
2018-07-03T10:05:55.126Z,81.20
2018-07-03T10:08:24.007Z,82.30
2018-07-03T10:10:52.812Z,82.60
2018-07-03T10:13:21.653Z,82.50
2018-07-03T10:15:51.231Z,82.90
2018-07-03T10:18:20.147Z,81.80
2018-07-03T10:23:17.727Z,82.40
2018-07-03T10:28:16.083Z,81.20
2018-07-03T10:30:44.950Z,82.00
2018-07-03T10:33:13.828Z,80.60
2018-07-03T10:35:42.952Z,81.80
2018-07-03T10:38:12.000Z,81.50
2018-07-03T10:40:40.891Z,81.60
2018-07-03T10:43:09.764Z,82.90
2018-07-03T10:48:08.099Z,82.20
2018-07-03T10:50:37.216Z,82.60
2018-07-03T10:53:06.091Z,81.50
2018-07-03T10:55:34.951Z,81.70
2018-07-03T10:58:03.901Z,82.60
2018-07-03T11:00:32.764Z,85.10
2018-07-03T11:03:01.667Z,82.90
2018-07-03T11:05:30.507Z,82.40
2018-07-03T11:07:59.787Z,82.20
2018-07-03T11:10:28.753Z,81.40
2018-07-03T11:12:57.627Z,81.80
2018-07-03T11:15:26.791Z,84.80
2018-07-03T11:17:56.126Z,84.80
2018-07-03T11:20:25.097Z,82.40
2018-07-03T11:22:54.387Z,81.50
2018-07-03T11:25:23.407Z,81.50
2018-07-03T11:30:21.644Z,82.50
2018-07-03T11:32:50.891Z,81.90
2018-07-03T11:35:19.856Z,83.30
2018-07-03T11:37:48.806Z,81.30
2018-07-03T11:42:46.860Z,83.70
2018-07-03T11:45:15.731Z,82.60
2018-07-03T11:47:44.732Z,84.80
2018-07-03T11:50:13.569Z,81.70
2018-07-03T11:52:42.447Z,83.50
2018-07-03T11:55:11.328Z,84.40
2018-07-03T11:57:40.207Z,82.30
2018-07-03T12:00:09.267Z,83.00
2018-07-03T12:05:06.836Z,82.20
2018-07-03T12:07:35.691Z,82.20
2018-07-03T12:10:04.663Z,83.80
2018-07-03T12:12:33.511Z,81.60
2018-07-03T12:15:02.376Z,83.00
2018-07-03T12:17:31.231Z,83.50
2018-07-03T12:20:00.055Z,81.90
2018-07-03T12:22:28.960Z,78.50
2018-07-03T12:24:57.847Z,79.90
2018-07-03T12:27:26.762Z,79.10
2018-07-03T12:29:55.672Z,79.50
2018-07-03T12:32:24.595Z,80.90
2018-07-03T12:34:53.630Z,81.50
2018-07-03T12:39:51.255Z,79.60
2018-07-03T12:42:20.180Z,80.90
2018-07-03T12:44:49.024Z,80.00
2018-07-03T12:47:17.883Z,78.60
2018-07-03T12:49:46.834Z,79.40
2018-07-03T12:52:15.739Z,77.70
2018-07-03T12:54:44.615Z,80.60
2018-07-03T12:57:13.580Z,82.60
2018-07-03T12:59:42.467Z,78.50
2018-07-03T13:02:11.321Z,78.30
2018-07-03T13:04:40.272Z,78.40
2018-07-03T13:07:09.163Z,78.60
2018-07-03T13:09:37.999Z,78.70
2018-07-03T13:12:06.856Z,81.20
2018-07-03T13:14:35.811Z,81.00
2018-07-03T13:17:04.810Z,77.10
2018-07-03T13:19:33.699Z,76.30
2018-07-03T13:22:02.577Z,77.10
2018-07-03T13:24:31.470Z,78.30
2018-07-03T13:27:00.325Z,77.30
2018-07-03T13:31:58.020Z,78.40
2018-07-03T13:36:55.631Z,76.50
2018-07-03T13:39:24.502Z,74.30
2018-07-03T13:44:25.042Z,74.70
2018-07-03T13:46:54.347Z,74.20
2018-07-03T13:49:23.240Z,76.20
2018-07-03T13:51:52.107Z,75.30
2018-07-03T13:54:21.065Z,73.40
2018-07-03T13:56:51.110Z,74.90
2018-07-03T13:59:22.069Z,75.10
2018-07-03T14:04:20.609Z,72.90
2018-07-03T14:06:49.716Z,73.90
2018-07-03T14:09:19.228Z,74.20
2018-07-03T14:11:48.310Z,74.30
2018-07-03T14:14:17.716Z,74.90
2018-07-03T14:16:46.775Z,77.90
2018-07-03T14:19:15.619Z,74.60
2018-07-03T14:21:44.525Z,75.70
2018-07-03T14:24:13.480Z,74.50
2018-07-03T14:26:42.364Z,76.30
2018-07-03T14:29:11.219Z,78.00
2018-07-03T14:31:40.064Z,79.00
2018-07-03T14:34:09.016Z,78.50
2018-07-03T14:36:38.475Z,78.40
2018-07-03T14:39:11.735Z,77.60
2018-07-03T14:41:40.903Z,76.10
2018-07-03T14:46:39.759Z,77.60
2018-07-03T14:49:08.727Z,79.50
2018-07-03T14:51:37.642Z,77.50
2018-07-03T14:54:06.579Z,77.20
2018-07-03T14:56:35.503Z,77.50
2018-07-03T14:59:07.673Z,77.50
2018-07-03T15:01:37.812Z,76.20
2018-07-03T15:04:06.903Z,77.70
2018-07-03T15:06:35.766Z,78.30
2018-07-03T15:09:08.880Z,77.90
2018-07-03T15:11:37.901Z,78.30
2018-07-03T15:16:35.592Z,79.00
2018-07-03T15:19:10.378Z,77.80
2018-07-03T15:21:39.282Z,77.70
2018-07-03T15:24:09.228Z,76.80
2018-07-03T15:26:39.820Z,77.00
2018-07-03T15:29:09.746Z,78.00
2018-07-03T15:31:38.916Z,78.80
2018-07-03T15:34:08.979Z,78.00
2018-07-03T15:36:37.924Z,78.40
2018-07-03T15:39:10.821Z,77.50
2018-07-03T15:41:40.015Z,78.10
2018-07-03T15:44:26.131Z,79.10
2018-07-03T15:46:57.354Z,78.70
2018-07-03T15:49:26.334Z,79.40
2018-07-03T15:51:55.332Z,78.80
2018-07-03T15:54:24.268Z,79.00
2018-07-03T15:56:53.256Z,78.60
2018-07-03T15:59:22.200Z,78.70
2018-07-03T16:01:51.181Z,79.50
2018-07-03T16:05:35.680Z,79.90
2018-07-03T16:08:28.741Z,79.20
2018-07-03T16:10:59.199Z,80.30
2018-07-03T16:13:29.831Z,80.10
2018-07-03T16:15:58.742Z,80.20
2018-07-03T16:18:28.060Z,79.80
2018-07-03T16:23:25.792Z,79.30
2018-07-03T16:25:55.409Z,79.80
2018-07-03T16:28:24.311Z,79.10
2018-07-03T16:30:53.176Z,79.30
2018-07-03T16:33:22.061Z,80.10
2018-07-03T16:35:50.987Z,80.30
2018-07-03T16:38:19.824Z,80.30
2018-07-03T16:40:48.696Z,81.70
2018-07-03T16:45:46.323Z,80.40
2018-07-03T16:48:15.387Z,80.30
2018-07-03T16:50:44.262Z,81.20
2018-07-03T16:53:13.395Z,81.80
2018-07-03T16:55:42.292Z,81.10
2018-07-03T16:58:11.209Z,82.00
2018-07-03T17:03:08.951Z,81.20
2018-07-03T17:05:37.779Z,82.00
2018-07-03T17:08:06.618Z,82.40
2018-07-03T17:10:35.423Z,82.20
2018-07-03T17:13:04.723Z,83.10
2018-07-03T17:15:34.159Z,83.20
2018-07-03T17:18:02.995Z,86.20
2018-07-03T17:20:31.875Z,85.60
2018-07-03T17:23:00.736Z,86.00
2018-07-03T17:27:58.297Z,85.00
2018-07-03T17:30:27.271Z,85.90
2018-07-03T17:32:56.164Z,87.30
2018-07-03T17:35:24.996Z,88.30
2018-07-03T17:37:54.475Z,88.10
2018-07-03T17:40:40.481Z,87.90
2018-07-03T17:44:41.109Z,87.80
2018-07-03T17:47:09.987Z,87.40
2018-07-03T17:49:38.859Z,88.80
2018-07-03T17:52:07.764Z,89.50
2018-07-03T17:54:36.750Z,90.00
2018-07-03T17:57:05.695Z,90.00
2018-07-03T17:59:34.561Z,89.50
2018-07-03T18:02:03.501Z,89.90
2018-07-03T18:04:32.457Z,90.20
2018-07-03T18:07:01.432Z,90.20
2018-07-03T18:09:30.369Z,90.30
2018-07-03T18:11:59.217Z,90.60
2018-07-03T18:14:28.167Z,90.90
2018-07-03T18:16:57.007Z,91.20
2018-07-03T18:19:31.403Z,91.10
2018-07-03T18:22:00.232Z,91.10
2018-07-03T18:24:29.142Z,91.10
2018-07-03T18:26:59.062Z,91.20
2018-07-03T18:29:28.280Z,91.30
2018-07-03T18:31:57.324Z,91.20
2018-07-03T18:34:26.305Z,91.30
2018-07-03T18:36:55.266Z,91.40
2018-07-03T18:39:24.100Z,91.50
2018-07-03T18:44:21.906Z,91.60
2018-07-03T18:46:52.541Z,91.80
2018-07-03T18:49:21.784Z,92.00
2018-07-03T18:51:51.096Z,91.60
2018-07-03T18:56:51.886Z,92.00
2018-07-03T18:59:21.104Z,92.20
2018-07-03T19:02:05.154Z,92.60
2018-07-03T19:04:49.975Z,92.50
2018-07-03T19:07:23.672Z,92.40
2018-07-03T19:09:53.647Z,92.60
2018-07-03T19:14:53.048Z,92.50
2018-07-03T19:17:22.041Z,92.50
2018-07-03T19:19:50.892Z,92.40
2018-07-03T19:22:19.767Z,92.90
2018-07-03T19:27:17.784Z,92.60
2018-07-03T19:29:46.637Z,92.60
2018-07-03T19:32:15.521Z,92.50
2018-07-03T19:34:44.380Z,92.40
2018-07-03T19:37:13.251Z,92.90
2018-07-03T19:39:43.155Z,93.10
2018-07-03T19:42:12.043Z,92.90
2018-07-03T19:44:40.915Z,93.00
2018-07-03T19:49:38.569Z,93.30
2018-07-03T19:52:07.616Z,93.10
2018-07-03T19:54:36.507Z,93.00
2018-07-03T19:57:05.562Z,93.30
2018-07-03T19:59:34.440Z,93.20
2018-07-03T20:02:03.978Z,93.10
2018-07-03T20:04:32.834Z,93.20
2018-07-03T20:07:01.799Z,93.40
2018-07-03T20:09:31.490Z,93.50
2018-07-03T20:12:00.466Z,93.80
2018-07-03T20:14:29.312Z,93.70
2018-07-03T20:16:59.648Z,93.40
2018-07-03T20:19:28.471Z,93.50
2018-07-03T20:21:57.486Z,93.50
2018-07-03T20:24:27.772Z,93.70
2018-07-03T20:29:25.848Z,93.60
2018-07-03T20:31:54.671Z,93.60
2018-07-03T20:34:24.591Z,93.40
2018-07-03T20:36:53.459Z,93.40
2018-07-03T20:41:51.072Z,93.70
2018-07-03T20:44:20.412Z,93.70
2018-07-03T20:46:49.246Z,93.70
2018-07-03T20:49:18.099Z,93.70
2018-07-03T20:54:15.752Z,94.20
2018-07-03T20:56:44.576Z,93.90
2018-07-03T21:01:42.256Z,94.10
2018-07-03T21:06:40.279Z,94.10
2018-07-03T21:09:09.811Z,94.00
2018-07-03T21:11:38.682Z,94.00
2018-07-03T21:14:07.656Z,94.40
2018-07-03T21:16:36.496Z,94.20
2018-07-03T21:19:05.353Z,94.10
2018-07-03T21:21:34.180Z,94.20
2018-07-03T21:24:03.107Z,94.70
2018-07-03T21:29:00.671Z,94.10
2018-07-03T21:31:29.519Z,94.10
2018-07-03T21:33:58.365Z,94.30
2018-07-03T21:36:27.209Z,94.20
2018-07-03T21:38:56.132Z,94.40
2018-07-03T21:41:24.888Z,94.10
2018-07-03T21:43:53.747Z,94.10
2018-07-03T21:46:22.555Z,94.00
2018-07-03T21:48:51.370Z,94.00
2018-07-03T21:51:20.214Z,94.10
2018-07-03T21:53:49.057Z,94.10
2018-07-03T21:56:17.900Z,94.20
2018-07-03T21:58:46.763Z,94.50
2018-07-03T22:03:44.327Z,94.30
2018-07-03T22:08:41.856Z,94.10
2018-07-03T22:11:10.782Z,94.30
2018-07-03T22:13:39.592Z,94.90
2018-07-03T22:16:08.412Z,94.90
2018-07-03T22:18:37.251Z,95.00
2018-07-03T22:23:34.799Z,94.80
2018-07-03T22:26:03.689Z,95.00
2018-07-03T22:28:32.514Z,94.90
2018-07-03T22:33:30.251Z,94.60
2018-07-03T22:35:59.099Z,94.50
2018-07-03T22:38:27.951Z,94.50
2018-07-03T22:40:56.766Z,94.60
2018-07-03T22:45:54.321Z,94.50
2018-07-03T22:50:52.065Z,94.70
2018-07-03T22:53:20.916Z,94.80
2018-07-03T22:55:49.759Z,94.80
2018-07-03T22:58:18.615Z,95.10
2018-07-03T23:00:47.455Z,95.10
2018-07-03T23:03:16.316Z,95.00
2018-07-03T23:05:45.183Z,95.00
2018-07-03T23:08:14.007Z,94.90
2018-07-03T23:10:42.836Z,94.80
2018-07-03T23:15:40.475Z,95.00
2018-07-03T23:18:09.321Z,95.10
2018-07-03T23:20:38.151Z,95.10
2018-07-03T23:23:07.044Z,95.00
2018-07-03T23:25:35.824Z,95.20
2018-07-03T23:28:04.927Z,95.10
2018-07-03T23:30:33.783Z,95.00
2018-07-03T23:33:02.643Z,95.10
2018-07-03T23:35:31.533Z,95.00
2018-07-03T23:40:29.113Z,95.50
2018-07-03T23:42:57.962Z,95.40
2018-07-03T23:46:05.107Z,95.40
2018-07-03T23:48:51.218Z,95.30
2018-07-03T23:51:37.178Z,95.60
2018-07-03T23:54:23.075Z,95.60
2018-07-03T23:57:08.931Z,95.60
2018-07-03T23:59:54.863Z,95.40
